createdAt,value
2018-05-24T00:01:28.199Z,97187.80
2018-05-24T00:03:56.603Z,97179.82
2018-05-24T00:06:25.243Z,97177.06
2018-05-24T00:08:53.816Z,97180.77
2018-05-24T00:11:22.807Z,97182.39
2018-05-24T00:13:51.499Z,97181.67
2018-05-24T00:16:20.293Z,97180.31
2018-05-24T00:18:48.683Z,97173.02
2018-05-24T00:21:17.198Z,97179.23
2018-05-24T00:23:45.859Z,97175.72
2018-05-24T00:26:14.718Z,97173.05
2018-05-24T00:28:43.199Z,97165.83
2018-05-24T00:31:11.605Z,97165.02
2018-05-24T00:33:39.983Z,97164.52
2018-05-24T00:36:08.895Z,97165.67
2018-05-24T00:38:37.275Z,97162.94
2018-05-24T00:41:05.686Z,97155.70
2018-05-24T00:43:34.066Z,97153.81
2018-05-24T00:46:02.478Z,97156.41
2018-05-24T00:48:30.862Z,97152.66
2018-05-24T00:50:59.276Z,97149.72
2018-05-24T00:53:27.666Z,97149.99
2018-05-24T00:55:56.067Z,97148.67
2018-05-24T00:58:24.451Z,97143.77
2018-05-24T01:00:52.867Z,97146.10
2018-05-24T01:03:21.255Z,97142.77
2018-05-24T01:05:49.672Z,97141.20
2018-05-24T01:08:18.059Z,97142.32
2018-05-24T01:10:46.462Z,97146.20
2018-05-24T01:13:14.851Z,97143.58
2018-05-24T01:15:43.256Z,97140.94
2018-05-24T01:18:11.636Z,97143.61
2018-05-24T01:20:40.039Z,97142.59
2018-05-24T01:23:08.431Z,97145.06
2018-05-24T01:25:36.839Z,97140.67
2018-05-24T01:28:05.219Z,97138.73
2018-05-24T01:30:33.629Z,97132.88
2018-05-24T01:33:02.025Z,97139.92
2018-05-24T01:35:30.431Z,97130.55
2018-05-24T01:37:59.047Z,97135.70
2018-05-24T01:40:27.448Z,97133.91
2018-05-24T01:42:55.835Z,97141.47
2018-05-24T01:45:24.243Z,97136.24
2018-05-24T01:47:52.634Z,97130.45
2018-05-24T01:50:21.039Z,97129.35
2018-05-24T01:52:49.419Z,97130.31
2018-05-24T01:55:17.851Z,97127.09
2018-05-24T01:57:46.447Z,97126.72
2018-05-24T02:00:14.989Z,97122.66
2018-05-24T02:02:43.852Z,97119.30
2018-05-24T02:05:12.773Z,97121.03
2018-05-24T02:07:41.584Z,97116.47
2018-05-24T02:10:10.351Z,97125.47
2018-05-24T02:12:38.931Z,97122.34
2018-05-24T02:15:07.340Z,97118.30
2018-05-24T02:17:36.139Z,97115.75
2018-05-24T02:20:04.555Z,97119.73
2018-05-24T02:22:33.037Z,97116.56
2018-05-24T02:25:01.446Z,97125.39
2018-05-24T02:27:30.615Z,97123.88
2018-05-24T02:29:59.019Z,97130.07
2018-05-24T02:32:28.173Z,97131.17
2018-05-24T02:34:56.588Z,97130.25
2018-05-24T02:37:25.906Z,97132.79
2018-05-24T02:39:55.652Z,97134.30
2018-05-24T02:42:24.611Z,97140.08
2018-05-24T02:44:53.471Z,97133.70
2018-05-24T02:47:21.879Z,97131.58
2018-05-24T02:49:50.743Z,97136.14
2018-05-24T02:52:19.248Z,97123.49
2018-05-24T02:54:47.704Z,97127.24
2018-05-24T02:57:16.213Z,97128.73
2018-05-24T02:59:45.072Z,97125.58
2018-05-24T03:02:13.962Z,97119.81
2018-05-24T03:04:42.594Z,97122.83
2018-05-24T03:07:11.001Z,97117.95
2018-05-24T03:09:39.641Z,97119.18
2018-05-24T03:12:08.191Z,97118.59
2018-05-24T03:14:36.571Z,97119.16
2018-05-24T03:17:04.985Z,97119.52
2018-05-24T03:19:33.729Z,97113.84
2018-05-24T03:22:02.136Z,97116.38
2018-05-24T03:24:30.514Z,97114.24
2018-05-24T03:26:58.919Z,97106.21
2018-05-24T03:29:28.391Z,97109.87
2018-05-24T03:31:57.163Z,97113.28
2018-05-24T03:34:25.539Z,97110.04
2018-05-24T03:36:53.971Z,97116.21
2018-05-24T03:39:23.078Z,97112.42
2018-05-24T03:41:51.484Z,97112.77
2018-05-24T03:44:20.682Z,97113.10
2018-05-24T03:46:49.326Z,97114.44
2018-05-24T03:49:18.579Z,97114.05
2018-05-24T03:51:48.331Z,97108.41
2018-05-24T03:54:16.960Z,97113.29
2018-05-24T03:56:45.917Z,97106.75
2018-05-24T04:02:46.892Z,97111.06
2018-05-24T04:05:16.141Z,97105.37
2018-05-24T04:07:44.936Z,97105.07
2018-05-24T04:10:13.440Z,97105.11
2018-05-24T04:12:41.847Z,97102.86
2018-05-24T04:15:10.965Z,97114.39
2018-05-24T04:17:39.814Z,97106.46
2018-05-24T04:20:08.747Z,97099.80
2018-05-24T04:22:37.299Z,97102.68
2018-05-24T04:25:06.092Z,97100.16
2018-05-24T04:27:34.782Z,97100.16
2018-05-24T04:30:03.173Z,97101.38
2018-05-24T04:32:31.591Z,97099.48
2018-05-24T04:35:00.724Z,97100.42
2018-05-24T04:37:29.211Z,97093.67
2018-05-24T04:39:57.598Z,97095.92
2018-05-24T04:42:26.175Z,97098.48
2018-05-24T04:44:55.167Z,97096.19
2018-05-24T04:47:23.571Z,97094.66
2018-05-24T04:49:51.947Z,97090.21
2018-05-24T04:52:20.343Z,97096.84
2018-05-24T04:54:48.716Z,97090.70
2018-05-24T04:57:17.120Z,97092.55
2018-05-24T04:59:46.367Z,97086.87
2018-05-24T05:02:15.428Z,97092.60
2018-05-24T05:04:44.547Z,97085.69
2018-05-24T05:07:12.990Z,97087.94
2018-05-24T05:09:42.195Z,97099.30
2018-05-24T05:12:11.348Z,97094.63
2018-05-24T05:14:39.738Z,97091.38
2018-05-24T05:17:08.523Z,97094.53
2018-05-24T05:19:36.971Z,97089.27
2018-05-24T05:22:05.475Z,97082.63
2018-05-24T05:24:34.117Z,97091.05
2018-05-24T05:27:02.980Z,97080.55
2018-05-24T05:29:31.347Z,97086.98
2018-05-24T05:31:59.804Z,97093.16
2018-05-24T05:34:28.451Z,97102.50
2018-05-24T05:36:57.194Z,97098.03
2018-05-24T05:39:26.047Z,97102.64
2018-05-24T05:41:54.448Z,97102.23
2018-05-24T05:44:22.818Z,97101.06
2018-05-24T05:46:51.210Z,97101.95
2018-05-24T05:49:19.582Z,97108.23
2018-05-24T05:51:47.977Z,97110.42
2018-05-24T05:54:16.346Z,97111.71
2018-05-24T05:56:44.751Z,97109.35
2018-05-24T05:59:13.135Z,97116.15
2018-05-24T06:01:41.704Z,97112.70
2018-05-24T06:04:10.068Z,97110.14
2018-05-24T06:06:38.652Z,97110.67
2018-05-24T06:09:07.895Z,97104.48
2018-05-24T06:11:36.282Z,97110.73
2018-05-24T06:14:04.662Z,97107.08
2018-05-24T06:16:33.054Z,97107.42
2018-05-24T06:19:01.427Z,97111.01
2018-05-24T06:21:29.841Z,97111.50
2018-05-24T06:23:58.199Z,97118.19
2018-05-24T06:26:26.605Z,97121.36
2018-05-24T06:28:54.962Z,97123.45
2018-05-24T06:31:23.355Z,97118.08
2018-05-24T06:33:51.732Z,97127.59
2018-05-24T06:36:20.119Z,97131.20
2018-05-24T06:38:48.482Z,97138.36
2018-05-24T06:41:16.871Z,97128.82
2018-05-24T06:43:45.243Z,97129.92
2018-05-24T06:46:13.655Z,97131.23
2018-05-24T06:48:42.019Z,97139.33
2018-05-24T06:51:10.396Z,97138.62
2018-05-24T06:53:38.812Z,97138.07
2018-05-24T06:56:07.268Z,97138.00
2018-05-24T06:58:35.562Z,97141.98
2018-05-24T07:01:03.940Z,97144.69
2018-05-24T07:03:32.694Z,97146.19
2018-05-24T07:06:01.672Z,97148.40
2018-05-24T07:08:30.183Z,97148.17
2018-05-24T07:10:59.483Z,97149.09
2018-05-24T07:13:28.174Z,97148.55
2018-05-24T07:15:57.279Z,97148.77
2018-05-24T07:18:25.873Z,97149.46
2018-05-24T07:20:54.520Z,97146.20
2018-05-24T07:23:23.124Z,97149.09
2018-05-24T07:25:51.599Z,97149.15
2018-05-24T07:28:20.023Z,97149.30
2018-05-24T07:30:48.922Z,97153.31
2018-05-24T07:33:17.562Z,97153.47
2018-05-24T07:35:45.976Z,97149.38
2018-05-24T07:38:14.527Z,97155.88
2018-05-24T07:40:42.903Z,97152.09
2018-05-24T07:43:11.998Z,97142.84
2018-05-24T07:45:40.503Z,97146.89
2018-05-24T07:48:08.975Z,97143.42
2018-05-24T07:50:37.356Z,97134.97
2018-05-24T07:53:05.939Z,97139.23
2018-05-24T07:55:34.311Z,97141.19
2018-05-24T07:58:02.893Z,97140.77
2018-05-24T08:00:31.263Z,97137.09
2018-05-24T08:02:59.949Z,97138.95
2018-05-24T08:05:28.647Z,97144.48
2018-05-24T08:07:57.338Z,97143.16
2018-05-24T08:10:26.227Z,97132.81
2018-05-24T08:12:55.172Z,97131.34
2018-05-24T08:15:24.203Z,97132.02
2018-05-24T08:17:52.595Z,97132.30
2018-05-24T08:20:21.075Z,97132.28
2018-05-24T08:22:49.760Z,97128.97
2018-05-24T08:25:18.763Z,97122.44
2018-05-24T08:27:47.239Z,97127.73
2018-05-24T08:30:16.435Z,97124.11
2018-05-24T08:32:44.836Z,97125.25
2018-05-24T08:35:13.403Z,97127.31
2018-05-24T08:37:42.839Z,97129.68
2018-05-24T08:40:11.691Z,97114.92
2018-05-24T08:42:40.690Z,97116.44
2018-05-24T08:45:09.527Z,97118.20
2018-05-24T08:47:38.756Z,97113.43
2018-05-24T08:50:07.499Z,97118.13
2018-05-24T08:52:36.420Z,97114.33
2018-05-24T08:55:04.970Z,97114.59
2018-05-24T08:57:33.651Z,97117.00
2018-05-24T09:00:02.107Z,97124.04
2018-05-24T09:02:31.519Z,97125.42
2018-05-24T09:05:00.163Z,97124.81
2018-05-24T09:07:28.911Z,97118.05
2018-05-24T09:09:57.938Z,97115.06
2018-05-24T09:12:26.338Z,97121.06
2018-05-24T09:14:55.034Z,97112.59
2018-05-24T09:17:24.405Z,97120.39
2018-05-24T09:19:53.033Z,97124.45
2018-05-24T09:22:21.770Z,97123.53
2018-05-24T09:24:50.615Z,97122.80
2018-05-24T09:27:19.508Z,97121.30
2018-05-24T09:29:48.271Z,97120.55
2018-05-24T09:32:16.991Z,97125.42
2018-05-24T09:34:45.396Z,97130.83
2018-05-24T09:37:13.807Z,97128.98
2018-05-24T09:39:42.201Z,97127.75
2018-05-24T09:42:10.634Z,97126.45
2018-05-24T09:44:38.991Z,97128.54
2018-05-24T09:47:07.403Z,97126.99
2018-05-24T09:49:35.797Z,97136.33
2018-05-24T09:52:04.203Z,97139.92
2018-05-24T09:54:32.579Z,97134.91
2018-05-24T09:57:00.976Z,97133.55
2018-05-24T09:59:29.362Z,97129.94
2018-05-24T10:01:57.756Z,97131.43
2018-05-24T10:04:26.168Z,97135.33
2018-05-24T10:06:55.235Z,97134.20
2018-05-24T10:09:23.688Z,97133.75
2018-05-24T10:11:52.084Z,97132.70
2018-05-24T10:14:21.331Z,97129.37
2018-05-24T10:16:49.723Z,97130.39
2018-05-24T10:19:18.875Z,97127.94
2018-05-24T10:21:47.448Z,97125.91
2018-05-24T10:24:16.411Z,97133.97
2018-05-24T10:26:44.803Z,97130.22
2018-05-24T10:29:14.178Z,97134.35
2018-05-24T10:31:42.907Z,97129.06
2018-05-24T10:34:11.604Z,97129.97
2018-05-24T10:36:40.012Z,97134.18
2018-05-24T10:39:09.119Z,97140.80
2018-05-24T10:41:37.971Z,97139.22
2018-05-24T10:44:06.375Z,97132.28
2018-05-24T10:46:34.766Z,97133.31
2018-05-24T10:49:03.176Z,97139.67
2018-05-24T10:51:32.659Z,97135.94
2018-05-24T10:54:01.080Z,97138.52
2018-05-24T10:56:30.212Z,97140.91
2018-05-24T10:58:58.887Z,97138.48
2018-05-24T11:01:27.680Z,97139.90
2018-05-24T11:03:56.347Z,97133.82
2018-05-24T11:06:25.111Z,97136.14
2018-05-24T11:08:53.925Z,97133.55
2018-05-24T11:11:22.315Z,97129.34
2018-05-24T11:13:50.715Z,97129.28
2018-05-24T11:16:19.107Z,97132.12
2018-05-24T11:18:47.516Z,97133.11
2018-05-24T11:21:15.907Z,97132.42
2018-05-24T11:23:44.310Z,97124.25
2018-05-24T11:26:12.701Z,97123.07
2018-05-24T11:28:41.107Z,97117.44
2018-05-24T11:31:09.499Z,97114.86
2018-05-24T11:33:37.912Z,97114.09
2018-05-24T11:36:06.303Z,97111.77
2018-05-24T11:38:34.706Z,97106.00
2018-05-24T11:41:03.420Z,97106.25
2018-05-24T11:43:31.850Z,97097.66
2018-05-24T11:46:01.121Z,97093.54
2018-05-24T11:48:29.646Z,97093.66
2018-05-24T11:50:58.037Z,97085.38
2018-05-24T11:53:26.495Z,97090.32
2018-05-24T11:55:56.675Z,97077.75
2018-05-24T11:58:25.471Z,97084.16
2018-05-24T12:00:54.092Z,97083.19
2018-05-24T12:03:22.508Z,97081.76
2018-05-24T12:05:51.775Z,97074.63
2018-05-24T12:08:20.555Z,97080.92
2018-05-24T12:10:49.360Z,97076.52
2018-05-24T12:13:18.027Z,97092.20
2018-05-24T12:15:47.292Z,97084.53
2018-05-24T12:18:16.186Z,97080.98
2018-05-24T12:20:45.143Z,97081.67
2018-05-24T12:23:13.997Z,97078.78
2018-05-24T12:25:42.911Z,97081.30
2018-05-24T12:28:11.751Z,97077.55
2018-05-24T12:30:40.318Z,97074.39
2018-05-24T12:33:09.466Z,97079.91
2018-05-24T12:35:38.364Z,97069.02
2018-05-24T12:38:07.187Z,97069.09
2018-05-24T12:40:35.979Z,97067.36
2018-05-24T12:43:04.424Z,97062.64
2018-05-24T12:45:33.403Z,97066.27
2018-05-24T12:48:02.408Z,97061.00
2018-05-24T12:50:31.455Z,97060.27
2018-05-24T12:52:59.891Z,97058.63
2018-05-24T12:55:29.151Z,97057.36
2018-05-24T12:57:58.159Z,97050.20
2018-05-24T13:00:26.535Z,97057.09
2018-05-24T13:02:55.156Z,97049.53
2018-05-24T13:05:24.818Z,97049.97
2018-05-24T13:07:53.779Z,97050.94
2018-05-24T13:10:22.618Z,97042.27
2018-05-24T13:12:51.323Z,97042.91
2018-05-24T13:15:20.267Z,97036.87
2018-05-24T13:17:48.693Z,97045.67
2018-05-24T13:20:17.302Z,97034.01
2018-05-24T13:22:46.270Z,97040.27
2018-05-24T13:25:15.523Z,97028.09
2018-05-24T13:27:44.495Z,97030.82
2018-05-24T13:30:13.268Z,97021.37
2018-05-24T13:32:42.743Z,97026.28
2018-05-24T13:35:11.131Z,97026.41
2018-05-24T13:37:39.725Z,97023.31
2018-05-24T13:40:08.135Z,97018.33
2018-05-24T13:42:36.514Z,97021.89
2018-05-24T13:45:04.934Z,97018.72
2018-05-24T13:47:33.309Z,97011.93
2018-05-24T13:50:01.729Z,97018.30
2018-05-24T13:52:30.116Z,97017.76
2018-05-24T13:54:58.527Z,97019.89
2018-05-24T13:57:38.800Z,97015.81
2018-05-24T14:00:07.208Z,97013.50
2018-05-24T14:02:35.595Z,97015.03
2018-05-24T14:05:04.008Z,97014.74
2018-05-24T14:07:32.394Z,97009.95
2018-05-24T14:10:01.246Z,97010.05
2018-05-24T14:12:29.728Z,97002.44
2018-05-24T14:14:58.152Z,96997.97
2018-05-24T14:17:26.564Z,97005.25
2018-05-24T14:19:55.184Z,97002.42
2018-05-24T14:22:24.299Z,97002.64
2018-05-24T14:24:53.166Z,97006.53
2018-05-24T14:27:21.934Z,97012.20
2018-05-24T14:29:50.343Z,97007.88
2018-05-24T14:32:20.018Z,97004.27
2018-05-24T14:34:48.799Z,97000.40
2018-05-24T14:37:17.186Z,97011.95
2018-05-24T14:39:46.111Z,97007.52
2018-05-24T14:42:14.511Z,97010.80
2018-05-24T14:44:42.923Z,97014.28
2018-05-24T14:47:11.314Z,97014.77
2018-05-24T14:49:39.714Z,97016.09
2018-05-24T14:52:08.107Z,97007.77
2018-05-24T14:54:36.523Z,97007.96
2018-05-24T14:57:04.912Z,97004.78
2018-05-24T14:59:33.323Z,96998.62
2018-05-24T15:02:01.705Z,96999.47
2018-05-24T15:04:30.115Z,96996.56
2018-05-24T15:06:58.511Z,96998.64
2018-05-24T15:09:27.371Z,96995.34
2018-05-24T15:11:55.763Z,96988.40
2018-05-24T15:14:24.347Z,96988.01
2018-05-24T15:16:53.166Z,96996.36
2018-05-24T15:19:21.952Z,96991.14
2018-05-24T15:21:50.971Z,96990.09
2018-05-24T15:24:20.228Z,96986.53
2018-05-24T15:26:48.634Z,96990.95
2018-05-24T15:29:17.155Z,96984.12
2018-05-24T15:31:45.871Z,96981.23
2018-05-24T15:34:14.279Z,96982.34
2018-05-24T15:36:43.474Z,96993.28
2018-05-24T15:39:12.632Z,96992.50
2018-05-24T15:41:41.542Z,96992.00
2018-05-24T15:44:10.380Z,96987.31
2018-05-24T15:46:38.758Z,96983.88
2018-05-24T15:49:07.159Z,96980.23
2018-05-24T15:51:35.539Z,96978.09
2018-05-24T15:54:03.948Z,96969.99
2018-05-24T15:56:32.341Z,96966.29
2018-05-24T15:59:00.753Z,96969.95
2018-05-24T16:01:29.138Z,96962.52
2018-05-24T16:03:57.565Z,96956.09
2018-05-24T16:06:25.971Z,96965.69
2018-05-24T16:08:54.379Z,96962.47
2018-05-24T16:11:23.003Z,96967.29
2018-05-24T16:13:51.467Z,96965.56
2018-05-24T16:16:19.820Z,96976.16
2018-05-24T16:18:48.218Z,96984.76
2018-05-24T16:21:16.603Z,96981.42
2018-05-24T16:23:44.996Z,96980.78
2018-05-24T16:26:13.370Z,96981.27
2018-05-24T16:28:41.766Z,96981.55
2018-05-24T16:31:10.139Z,96982.11
2018-05-24T16:33:38.535Z,96980.12
2018-05-24T16:36:06.914Z,96975.70
2018-05-24T16:38:35.283Z,96976.13
2018-05-24T16:41:03.675Z,96976.66
2018-05-24T16:43:32.083Z,96974.23
2018-05-24T16:46:00.471Z,96973.86
2018-05-24T16:48:28.856Z,96974.84
2018-05-24T16:50:57.258Z,96979.32
2018-05-24T16:53:25.634Z,96980.12
2018-05-24T16:55:54.038Z,96977.38
2018-05-24T16:58:22.412Z,96977.34
2018-05-24T17:00:50.809Z,96969.47
2018-05-24T17:03:19.180Z,96976.94
2018-05-24T17:05:47.574Z,96973.41
2018-05-24T17:08:15.961Z,96968.92
2018-05-24T17:10:44.397Z,96975.02
2018-05-24T17:13:13.087Z,96972.11
2018-05-24T17:15:41.475Z,96970.03
2018-05-24T17:18:09.852Z,96971.30
2018-05-24T17:20:38.264Z,96972.82
2018-05-24T17:23:06.927Z,96981.14
2018-05-24T17:25:35.919Z,96982.66
2018-05-24T17:28:05.335Z,96988.66
2018-05-24T17:30:33.722Z,96989.46
2018-05-24T17:33:02.269Z,96983.31
2018-05-24T17:35:30.874Z,96988.77
2018-05-24T17:37:59.582Z,96974.67
2018-05-24T17:40:28.347Z,96979.16
2018-05-24T17:42:56.723Z,96979.47
2018-05-24T17:45:25.124Z,96982.59
2018-05-24T17:47:53.507Z,96985.67
2018-05-24T17:50:21.920Z,96987.14
2018-05-24T17:52:50.298Z,96992.86
2018-05-24T17:55:18.695Z,96989.39
2018-05-24T17:57:47.074Z,96999.02
2018-05-24T18:00:15.608Z,96993.56
2018-05-24T18:02:43.998Z,96997.80
2018-05-24T18:05:12.420Z,96996.97
2018-05-24T18:07:40.799Z,97001.80
2018-05-24T18:10:10.131Z,97002.78
2018-05-24T18:12:39.028Z,97006.27
2018-05-24T18:15:07.435Z,97005.86
2018-05-24T18:17:36.079Z,97006.57
2018-05-24T18:20:05.080Z,97006.78
2018-05-24T18:22:34.548Z,97014.97
2018-05-24T18:25:03.084Z,97018.01
2018-05-24T18:27:31.556Z,97019.02
2018-05-24T18:30:00.275Z,97018.45
2018-05-24T18:32:29.507Z,97017.62
2018-05-24T18:34:57.919Z,97019.69
2018-05-24T18:37:26.309Z,97016.44
2018-05-24T18:39:54.720Z,97016.39
2018-05-24T18:42:23.110Z,97026.13
2018-05-24T18:44:51.513Z,97025.19
2018-05-24T18:47:19.883Z,97030.84
2018-05-24T18:49:48.291Z,97033.05
2018-05-24T18:52:16.658Z,97034.36
2018-05-24T18:54:45.059Z,97033.11
2018-05-24T18:57:13.440Z,97044.28
2018-05-24T18:59:41.842Z,97048.12
2018-05-24T19:02:10.370Z,97049.05
2018-05-24T19:04:38.836Z,97046.92
2018-05-24T19:07:07.155Z,97041.84
2018-05-24T19:09:35.547Z,97050.20
2018-05-24T19:12:03.931Z,97049.89
2018-05-24T19:14:32.711Z,97049.34
2018-05-24T19:17:01.743Z,97043.45
2018-05-24T19:19:30.194Z,97048.96
2018-05-24T19:21:59.511Z,97050.36
2018-05-24T19:24:28.500Z,97053.40
2018-05-24T19:26:57.139Z,97054.36
2018-05-24T19:29:25.680Z,97053.52
2018-05-24T19:31:55.023Z,97053.49
2018-05-24T19:34:23.947Z,97058.26
2018-05-24T19:36:52.884Z,97051.27
2018-05-24T19:39:21.939Z,97067.10
2018-05-24T19:41:51.008Z,97066.41
2018-05-24T19:44:19.947Z,97063.98
2018-05-24T19:46:48.872Z,97059.28
2018-05-24T19:49:17.754Z,97069.91
2018-05-24T19:51:46.672Z,97071.52
2018-05-24T19:54:15.424Z,97069.44
2018-05-24T19:56:44.059Z,97072.47
2018-05-24T19:59:12.772Z,97070.47
2018-05-24T20:01:41.606Z,97069.83
2018-05-24T20:04:10.306Z,97066.16
2018-05-24T20:06:39.466Z,97076.13
2018-05-24T20:09:09.205Z,97072.89
2018-05-24T20:11:37.837Z,97078.39
2018-05-24T20:14:07.290Z,97081.31
2018-05-24T20:16:35.707Z,97079.61
2018-05-24T20:19:04.091Z,97082.44
2018-05-24T20:21:32.583Z,97074.80
2018-05-24T20:24:00.976Z,97079.06
2018-05-24T20:26:29.392Z,97073.17
2018-05-24T20:28:57.779Z,97078.75
2018-05-24T20:31:26.187Z,97078.70
2018-05-24T20:33:54.627Z,97082.30
2018-05-24T20:36:23.007Z,97078.70
2018-05-24T20:38:51.388Z,97073.86
2018-05-24T20:41:19.791Z,97075.95
2018-05-24T20:43:48.176Z,97076.01
2018-05-24T20:46:16.583Z,97075.73
2018-05-24T20:48:44.960Z,97068.69
2018-05-24T20:51:13.371Z,97076.83
2018-05-24T20:53:41.769Z,97068.64
2018-05-24T20:56:10.174Z,97070.12
2018-05-24T20:58:38.559Z,97068.55
2018-05-24T21:01:06.967Z,97066.78
2018-05-24T21:03:35.355Z,97066.94
2018-05-24T21:06:03.763Z,97061.71
2018-05-24T21:08:32.155Z,97059.91
2018-05-24T21:11:00.563Z,97060.28
2018-05-24T21:13:28.951Z,97054.01
2018-05-24T21:15:57.365Z,97055.81
2018-05-24T21:18:26.528Z,97060.20
2018-05-24T21:20:55.485Z,97059.53
2018-05-24T21:23:23.998Z,97062.80
2018-05-24T21:25:52.974Z,97063.80
2018-05-24T21:28:21.467Z,97064.55
2018-05-24T21:30:49.866Z,97057.92
2018-05-24T21:33:18.267Z,97050.66
2018-05-24T21:35:46.683Z,97059.55
2018-05-24T21:38:15.064Z,97051.48
2018-05-24T21:40:43.475Z,97055.88
2018-05-24T21:43:11.864Z,97055.88
2018-05-24T21:45:40.275Z,97057.47
2018-05-24T21:48:08.667Z,97062.82
2018-05-24T21:50:37.079Z,97059.75
2018-05-24T21:53:05.470Z,97054.14
2018-05-24T21:55:33.870Z,97062.06
2018-05-24T21:58:02.261Z,97059.41
2018-05-24T22:00:30.663Z,97062.91
2018-05-24T22:02:59.062Z,97068.81
2018-05-24T22:05:27.481Z,97060.22
2018-05-24T22:07:55.867Z,97060.48
2018-05-24T22:10:24.285Z,97066.74
2018-05-24T22:12:52.681Z,97068.09
2018-05-24T22:15:21.078Z,97068.38
2018-05-24T22:17:49.706Z,97068.23
2018-05-24T22:20:18.390Z,97071.20
2018-05-24T22:22:46.935Z,97067.90
2018-05-24T22:25:15.364Z,97066.13
2018-05-24T22:27:44.968Z,97066.91
2018-05-24T22:30:13.999Z,97070.84
2018-05-24T22:32:43.170Z,97067.52
2018-05-24T22:35:12.563Z,97065.31
2018-05-24T22:37:41.055Z,97068.16
2018-05-24T22:40:09.513Z,97060.22
2018-05-24T22:42:37.987Z,97061.98
2018-05-24T22:45:06.467Z,97061.20
2018-05-24T22:47:35.423Z,97068.73
2018-05-24T22:50:04.390Z,97066.76
2018-05-24T22:52:32.808Z,97065.86
2018-05-24T22:55:01.551Z,97062.06
2018-05-24T22:57:30.043Z,97061.56
2018-05-24T22:59:58.427Z,97064.82
2018-05-24T23:02:27.116Z,97065.58
2018-05-24T23:04:55.784Z,97061.43
2018-05-24T23:07:24.143Z,97055.61
2018-05-24T23:09:52.815Z,97054.12
2018-05-24T23:12:21.298Z,97047.91
2018-05-24T23:14:49.690Z,97049.97
2018-05-24T23:17:18.175Z,97050.02
2018-05-24T23:19:47.115Z,97049.22
2018-05-24T23:22:27.308Z,97047.95
2018-05-24T23:24:56.508Z,97056.03
2018-05-24T23:27:25.292Z,97053.91
2018-05-24T23:29:54.323Z,97051.70
2018-05-24T23:32:23.019Z,97054.36
2018-05-24T23:34:51.372Z,97061.75
2018-05-24T23:37:20.102Z,97060.13
2018-05-24T23:39:48.491Z,97052.94
2018-05-24T23:42:16.912Z,97057.74
2018-05-24T23:44:46.164Z,97055.23
2018-05-24T23:47:14.894Z,97058.68
2018-05-24T23:49:44.132Z,97054.22
2018-05-24T23:52:12.899Z,97050.98
2018-05-24T23:54:41.899Z,97058.81
2018-05-24T23:57:10.376Z,97054.82
2018-05-24T23:59:38.768Z,97056.05
